sensor_id;sensor_type;location;lat;lon;timestamp;pressure;altitude;pressure_sealevel;temperature;humidity
55317;BME280;41178;48.956;8.130;2023-08-12T00:02:25;99872.66;;;22.31;52.70
55317;BME280;41178;48.956;8.130;2023-08-12T00:07:27;99916.63;;;20.41;56.33
55317;BME280;41178;48.956;8.130;2023-08-12T00:12:29;99887.56;;;20.98;55.11
55317;BME280;41178;48.956;8.130;2023-08-12T00:17:31;99897.19;;;22.64;51.41
55317;BME280;41178;48.956;8.130;2023-08-12T00:22:32;99906.91;;;22.92;50.90
55317;BME280;41178;48.956;8.130;2023-08-12T00:27:34;99917.72;;;24.80;47.43
55317;BME280;41178;48.956;8.130;2023-08-12T00:32:36;99948.38;;;24.36;47.76
55317;BME280;41178;48.956;8.130;2023-08-12T00:37:38;99958.28;;;21.81;53.60
55317;BME280;41178;48.956;8.130;2023-08-12T00:42:40;99894.78;;;22.35;52.77
55317;BME280;41178;48.956;8.130;2023-08-12T00:47:42;99918.72;;;22.28;52.26
55317;BME280;41178;48.956;8.130;2023-08-12T00:52:44;99913.53;;;23.70;49.91
55317;BME280;41178;48.956;8.130;2023-08-12T00:57:46;99963.53;;;23.12;50.70
55317;BME280;41178;48.956;8.130;2023-08-12T01:02:48;99929.50;;;24.50;48.42
55317;BME280;41178;48.956;8.130;2023-08-12T01:07:50;99978.16;;;23.43;50.36
55317;BME280;41178;48.956;8.130;2023-08-12T01:18:23;99986.59;;;22.57;51.20
55317;BME280;41178;48.956;8.130;2023-08-12T01:23:25;99924.22;;;23.76;49.45
55317;BME280;41178;48.956;8.130;2023-08-12T01:28:27;99936.06;;;24.28;48.34
55317;BME280;41178;48.956;8.130;2023-08-12T01:39:39;99948.97;;;23.54;49.59
55317;BME280;41178;48.956;8.130;2023-08-12T01:44:42;99959.16;;;23.69;49.60
55317;BME280;41178;48.956;8.130;2023-08-12T01:49:44;99960.13;;;24.16;48.95
55317;BME280;41178;48.956;8.130;2023-08-12T01:54:46;99987.06;;;23.87;49.31
55317;BME280;41178;48.956;8.130;2023-08-12T01:59:48;99897.88;;;22.86;52.30
55317;BME280;41178;48.956;8.130;2023-08-12T02:04:50;99948.28;;;21.87;53.83
55317;BME280;41178;48.956;8.130;2023-08-12T02:09:51;99930.75;;;23.07;51.00
55317;BME280;41178;48.956;8.130;2023-08-12T02:14:53;99927.31;;;22.14;53.80
55317;BME280;41178;48.956;8.130;2023-08-12T02:19:55;99902.22;;;22.82;52.39
55317;BME280;41178;48.956;8.130;2023-08-12T02:24:57;99962.19;;;22.77;51.94
55317;BME280;41178;48.956;8.130;2023-08-12T02:29:58;99943.06;;;22.72;52.56
55317;BME280;41178;48.956;8.130;2023-08-12T02:35:00;99967.31;;;22.09;53.52
55317;BME280;41178;48.956;8.130;2023-08-12T02:40:02;99950.44;;;23.14;51.76
55317;BME280;41178;48.956;8.130;2023-08-12T02:45:06;99920.34;;;23.04;52.12
55317;BME280;41178;48.956;8.130;2023-08-12T02:50:08;99888.97;;;23.80;51.50
55317;BME280;41178;48.956;8.130;2023-08-12T02:55:10;99933.00;;;22.45;53.72
55317;BME280;41178;48.956;8.130;2023-08-12T03:00:13;99903.78;;;22.03;55.35
55317;BME280;41178;48.956;8.130;2023-08-12T03:05:15;99904.72;;;23.47;52.29
55317;BME280;41178;48.956;8.130;2023-08-12T03:10:16;99940.50;;;21.95;55.01
55317;BME280;41178;48.956;8.130;2023-08-12T03:15:18;99887.88;;;22.22;54.99
55317;BME280;41178;48.956;8.130;2023-08-12T03:20:20;99891.41;;;22.55;53.92
55317;BME280;41178;48.956;8.130;2023-08-12T03:25:22;99925.28;;;21.33;55.61
55317;BME280;41178;48.956;8.130;2023-08-12T03:30:24;99878.44;;;22.03;54.81
55317;BME280;41178;48.956;8.130;2023-08-12T03:35:26;99891.75;;;21.99;54.67
55317;BME280;41178;48.956;8.130;2023-08-12T03:40:27;99926.19;;;22.10;54.01
55317;BME280;41178;48.956;8.130;2023-08-12T03:45:29;99900.16;;;22.57;53.11
55317;BME280;41178;48.956;8.130;2023-08-12T03:50:34;99903.81;;;22.73;53.02
55317;BME280;41178;48.956;8.130;2023-08-12T03:55:36;99916.22;;;23.59;50.88
55317;BME280;41178;48.956;8.130;2023-08-12T04:00:41;99915.53;;;22.74;53.10
55317;BME280;41178;48.956;8.130;2023-08-12T04:05:48;99962.19;;;22.12;53.47
55317;BME280;41178;48.956;8.130;2023-08-12T04:10:51;99929.47;;;22.77;52.15
55317;BME280;41178;48.956;8.130;2023-08-12T04:15:53;99925.00;;;22.01;54.38
55317;BME280;41178;48.956;8.130;2023-08-12T04:20:55;99905.03;;;22.23;53.86
55317;BME280;41178;48.956;8.130;2023-08-12T04:25:57;99925.34;;;20.94;56.54
55317;BME280;41178;48.956;8.130;2023-08-12T04:30:58;99924.31;;;21.89;54.16
55317;BME280;41178;48.956;8.130;2023-08-12T04:36:00;99922.50;;;21.94;54.44
55317;BME280;41178;48.956;8.130;2023-08-12T04:41:02;99882.72;;;22.26;53.92
55317;BME280;41178;48.956;8.130;2023-08-12T04:46:04;99907.13;;;22.85;51.91
55317;BME280;41178;48.956;8.130;2023-08-12T04:51:06;99914.22;;;22.81;52.45
55317;BME280;41178;48.956;8.130;2023-08-12T04:56:08;99878.63;;;22.28;54.42
55317;BME280;41178;48.956;8.130;2023-08-12T05:01:10;99909.38;;;22.51;53.18
55317;BME280;41178;48.956;8.130;2023-08-12T05:06:12;99891.47;;;23.08;52.09
55317;BME280;41178;48.956;8.130;2023-08-12T05:11:13;99865.53;;;24.25;49.75
55317;BME280;41178;48.956;8.130;2023-08-12T05:16:15;99890.13;;;24.20;49.93
55317;BME280;41178;48.956;8.130;2023-08-12T05:21:17;99908.81;;;22.49;53.12
55317;BME280;41178;48.956;8.130;2023-08-12T05:26:18;99881.63;;;24.42;49.45
55317;BME280;41178;48.956;8.130;2023-08-12T05:31:21;99899.84;;;25.08;48.44
55317;BME280;41178;48.956;8.130;2023-08-12T05:36:23;99915.81;;;24.60;49.15
55317;BME280;41178;48.956;8.130;2023-08-12T05:41:25;99921.69;;;23.59;51.52
55317;BME280;41178;48.956;8.130;2023-08-12T05:46:27;99902.72;;;24.31;50.03
55317;BME280;41178;48.956;8.130;2023-08-12T05:51:28;99908.19;;;24.16;50.56
55317;BME280;41178;48.956;8.130;2023-08-12T05:56:31;99925.72;;;22.88;53.38
55317;BME280;41178;48.956;8.130;2023-08-12T06:01:33;99897.50;;;24.45;50.04
55317;BME280;41178;48.956;8.130;2023-08-12T06:06:34;99879.72;;;24.58;50.58
55317;BME280;41178;48.956;8.130;2023-08-12T06:11:36;99892.88;;;24.25;50.96
55317;BME280;41178;48.956;8.130;2023-08-12T06:16:38;99885.78;;;24.24;51.33
55317;BME280;41178;48.956;8.130;2023-08-12T06:21:40;99891.19;;;24.81;50.19
55317;BME280;41178;48.956;8.130;2023-08-12T06:26:41;99870.56;;;25.64;48.81
55317;BME280;41178;48.956;8.130;2023-08-12T06:31:43;99909.78;;;24.02;52.08
55317;BME280;41178;48.956;8.130;2023-08-12T06:36:45;99883.53;;;24.62;50.65
55317;BME280;41178;48.956;8.130;2023-08-12T06:41:47;99902.13;;;24.81;49.28
55317;BME280;41178;48.956;8.130;2023-08-12T06:46:49;99911.97;;;24.10;51.45
55317;BME280;41178;48.956;8.130;2023-08-12T06:51:51;99861.34;;;24.79;50.53
55317;BME280;41178;48.956;8.130;2023-08-12T06:56:53;99857.81;;;25.44;49.39
55317;BME280;41178;48.956;8.130;2023-08-12T07:01:54;99873.53;;;25.23;49.66
55317;BME280;41178;48.956;8.130;2023-08-12T07:06:56;99871.84;;;25.32;49.61
55317;BME280;41178;48.956;8.130;2023-08-12T07:11:58;99883.50;;;25.53;48.58
55317;BME280;41178;48.956;8.130;2023-08-12T07:17:00;99884.09;;;25.45;49.61
55317;BME280;41178;48.956;8.130;2023-08-12T07:22:01;99844.97;;;24.69;51.87
55317;BME280;41178;48.956;8.130;2023-08-12T07:27:03;99863.03;;;24.49;52.29
55317;BME280;41178;48.956;8.130;2023-08-12T07:32:08;99850.94;;;24.81;51.51
55317;BME280;41178;48.956;8.130;2023-08-12T07:37:10;99869.75;;;24.98;50.99
55317;BME280;41178;48.956;8.130;2023-08-12T07:42:12;99889.63;;;25.35;49.62
55317;BME280;41178;48.956;8.130;2023-08-12T07:47:14;99896.56;;;25.06;50.76
55317;BME280;41178;48.956;8.130;2023-08-12T07:52:16;99871.22;;;25.45;50.29
55317;BME280;41178;48.956;8.130;2023-08-12T07:57:18;99892.16;;;25.26;49.98
55317;BME280;41178;48.956;8.130;2023-08-12T08:02:22;99873.84;;;25.66;49.50
55317;BME280;41178;48.956;8.130;2023-08-12T08:07:23;99870.09;;;24.66;51.39
55317;BME280;41178;48.956;8.130;2023-08-12T08:12:25;99852.94;;;25.80;50.22
55317;BME280;41178;48.956;8.130;2023-08-12T08:17:27;99849.25;;;25.95;50.09
55317;BME280;41178;48.956;8.130;2023-08-12T08:22:31;99870.94;;;24.82;52.00
55317;BME280;41178;48.956;8.130;2023-08-12T08:27:33;99859.66;;;25.98;49.65
55317;BME280;41178;48.956;8.130;2023-08-12T08:32:35;99888.44;;;23.88;51.87
55317;BME280;41178;48.956;8.130;2023-08-12T08:37:36;99834.91;;;26.38;48.98
55317;BME280;41178;48.956;8.130;2023-08-12T08:42:39;99834.50;;;26.50;49.27
55317;BME280;41178;48.956;8.130;2023-08-12T08:47:42;99824.19;;;26.90;48.79
55317;BME280;41178;48.956;8.130;2023-08-12T08:52:44;99839.28;;;27.36;47.59
55317;BME280;41178;48.956;8.130;2023-08-12T08:57:47;99873.75;;;26.50;48.52
55317;BME280;41178;48.956;8.130;2023-08-12T09:02:49;99854.81;;;26.19;49.09
55317;BME280;41178;48.956;8.130;2023-08-12T09:07:53;99853.63;;;26.31;49.06
55317;BME280;41178;48.956;8.130;2023-08-12T09:12:56;99863.53;;;25.92;49.11
55317;BME280;41178;48.956;8.130;2023-08-12T09:17:58;99855.06;;;26.52;48.64
55317;BME280;41178;48.956;8.130;2023-08-12T09:23:01;99856.06;;;26.62;48.52
55317;BME280;41178;48.956;8.130;2023-08-12T09:28:04;99845.47;;;26.79;47.90
55317;BME280;41178;48.956;8.130;2023-08-12T09:33:07;99845.53;;;27.17;49.19
55317;BME280;41178;48.956;8.130;2023-08-12T09:38:13;99841.19;;;27.16;48.49
55317;BME280;41178;48.956;8.130;2023-08-12T09:43:15;99833.25;;;26.90;47.97
55317;BME280;41178;48.956;8.130;2023-08-12T09:48:18;99856.47;;;27.22;47.50
55317;BME280;41178;48.956;8.130;2023-08-12T09:53:22;99850.28;;;26.39;48.71
55317;BME280;41178;48.956;8.130;2023-08-12T09:58:24;99854.59;;;26.74;48.29
55317;BME280;41178;48.956;8.130;2023-08-12T10:03:27;99842.63;;;27.08;47.78
55317;BME280;41178;48.956;8.130;2023-08-12T10:08:31;99839.50;;;27.77;46.72
55317;BME280;41178;48.956;8.130;2023-08-12T10:13:34;99860.09;;;27.18;46.36
55317;BME280;41178;48.956;8.130;2023-08-12T10:18:39;99841.78;;;27.51;46.45
55317;BME280;41178;48.956;8.130;2023-08-12T10:23:45;99875.47;;;27.19;46.50
55317;BME280;41178;48.956;8.130;2023-08-12T10:28:48;99908.44;;;26.94;47.43
55317;BME280;41178;48.956;8.130;2023-08-12T10:33:53;99916.28;;;25.69;49.03
55317;BME280;41178;48.956;8.130;2023-08-12T10:38:56;99878.28;;;25.57;49.90
55317;BME280;41178;48.956;8.130;2023-08-12T10:44:04;99848.59;;;25.74;51.29
55317;BME280;41178;48.956;8.130;2023-08-12T10:49:09;99848.22;;;25.91;53.29
55317;BME280;41178;48.956;8.130;2023-08-12T10:54:24;99833.75;;;26.44;52.08
55317;BME280;41178;48.956;8.130;2023-08-12T11:06:19;99845.13;;;26.32;52.65
55317;BME280;41178;48.956;8.130;2023-08-12T11:11:22;99855.03;;;26.28;53.41
55317;BME280;41178;48.956;8.130;2023-08-12T11:16:37;99817.56;;;27.91;51.43
55317;BME280;41178;48.956;8.130;2023-08-12T11:21:39;99891.22;;;25.46;55.51
55317;BME280;41178;48.956;8.130;2023-08-12T11:26:42;99854.66;;;25.66;54.29
55317;BME280;41178;48.956;8.130;2023-08-12T11:31:44;99859.28;;;26.10;52.28
55317;BME280;41178;48.956;8.130;2023-08-12T11:36:45;99882.22;;;26.54;52.55
55317;BME280;41178;48.956;8.130;2023-08-12T11:41:47;99857.13;;;26.36;52.13
55317;BME280;41178;48.956;8.130;2023-08-12T11:46:50;99873.72;;;26.55;53.21
55317;BME280;41178;48.956;8.130;2023-08-12T11:51:51;99850.81;;;26.65;53.53
55317;BME280;41178;48.956;8.130;2023-08-12T11:56:53;99855.63;;;26.79;54.34
55317;BME280;41178;48.956;8.130;2023-08-12T12:01:55;99852.16;;;26.09;55.29
55317;BME280;41178;48.956;8.130;2023-08-12T12:06:57;99827.06;;;26.55;54.79
55317;BME280;41178;48.956;8.130;2023-08-12T12:12:00;99842.50;;;25.82;55.98
55317;BME280;41178;48.956;8.130;2023-08-12T12:17:07;99835.22;;;25.68;55.16
55317;BME280;41178;48.956;8.130;2023-08-12T12:22:09;99858.53;;;25.99;54.56
55317;BME280;41178;48.956;8.130;2023-08-12T12:27:13;99856.59;;;26.05;55.79
55317;BME280;41178;48.956;8.130;2023-08-12T12:32:18;99844.72;;;26.68;52.91
55317;BME280;41178;48.956;8.130;2023-08-12T12:37:20;99850.91;;;26.55;52.92
55317;BME280;41178;48.956;8.130;2023-08-12T12:42:22;99846.91;;;26.95;52.09
55317;BME280;41178;48.956;8.130;2023-08-12T12:47:24;99861.34;;;26.82;52.03
55317;BME280;41178;48.956;8.130;2023-08-12T12:52:25;99865.69;;;27.07;51.22
55317;BME280;41178;48.956;8.130;2023-08-12T12:57:27;99873.25;;;26.97;50.13
55317;BME280;41178;48.956;8.130;2023-08-12T13:02:29;99868.72;;;27.11;50.61
55317;BME280;41178;48.956;8.130;2023-08-12T13:07:31;99868.34;;;27.18;50.05
55317;BME280;41178;48.956;8.130;2023-08-12T13:12:33;99874.38;;;26.95;50.46
55317;BME280;41178;48.956;8.130;2023-08-12T13:17:34;99876.00;;;26.97;51.01
55317;BME280;41178;48.956;8.130;2023-08-12T13:22:36;99881.22;;;26.98;49.62
55317;BME280;41178;48.956;8.130;2023-08-12T13:27:38;99858.69;;;27.20;50.53
55317;BME280;41178;48.956;8.130;2023-08-12T13:32:40;99850.66;;;27.05;49.97
55317;BME280;41178;48.956;8.130;2023-08-12T13:37:41;99845.38;;;27.71;49.13
55317;BME280;41178;48.956;8.130;2023-08-12T13:42:43;99831.34;;;27.53;49.13
55317;BME280;41178;48.956;8.130;2023-08-12T13:47:47;99835.69;;;27.16;49.67
55317;BME280;41178;48.956;8.130;2023-08-12T13:52:49;99860.16;;;26.64;50.16
55317;BME280;41178;48.956;8.130;2023-08-12T13:57:52;99821.41;;;27.38;48.59
55317;BME280;41178;48.956;8.130;2023-08-12T14:02:54;99826.69;;;26.38;50.63
55317;BME280;41178;48.956;8.130;2023-08-12T14:07:56;99821.25;;;27.48;49.11
55317;BME280;41178;48.956;8.130;2023-08-12T14:12:58;99862.28;;;26.43;50.78
55317;BME280;41178;48.956;8.130;2023-08-12T14:18:00;99803.72;;;24.40;56.98
55317;BME280;41178;48.956;8.130;2023-08-12T14:23:02;99769.59;;;23.96;60.50
55317;BME280;41178;48.956;8.130;2023-08-12T14:28:04;99789.44;;;21.27;63.41
55317;BME280;41178;48.956;8.130;2023-08-12T14:33:05;99833.44;;;23.33;58.55
55317;BME280;41178;48.956;8.130;2023-08-12T14:38:08;99812.31;;;26.22;51.58
55317;BME280;41178;48.956;8.130;2023-08-12T14:43:09;99879.72;;;25.49;53.38
55317;BME280;41178;48.956;8.130;2023-08-12T14:48:11;99839.81;;;24.47;56.44
55317;BME280;41178;48.956;8.130;2023-08-12T14:53:13;99854.59;;;23.94;56.81
55317;BME280;41178;48.956;8.130;2023-08-12T14:58:15;99859.50;;;24.33;56.83
55317;BME280;41178;48.956;8.130;2023-08-12T15:03:17;99874.69;;;23.47;58.50
55317;BME280;41178;48.956;8.130;2023-08-12T15:08:19;99827.25;;;24.30;58.06
55317;BME280;41178;48.956;8.130;2023-08-12T15:13:21;99837.66;;;23.97;58.42
55317;BME280;41178;48.956;8.130;2023-08-12T15:18:23;99815.22;;;25.22;55.30
55317;BME280;41178;48.956;8.130;2023-08-12T15:23:25;99877.69;;;25.05;54.27
55317;BME280;41178;48.956;8.130;2023-08-12T15:28:27;99880.09;;;27.23;50.42
55317;BME280;41178;48.956;8.130;2023-08-12T15:33:29;99929.91;;;26.29;50.44
55317;BME280;41178;48.956;8.130;2023-08-12T15:38:31;99938.16;;;25.24;52.39
55317;BME280;41178;48.956;8.130;2023-08-12T15:43:33;99880.50;;;26.34;50.89
55317;BME280;41178;48.956;8.130;2023-08-12T15:48:34;99898.22;;;26.76;51.05
55317;BME280;41178;48.956;8.130;2023-08-12T15:53:36;99948.88;;;25.70;52.38
55317;BME280;41178;48.956;8.130;2023-08-12T15:58:38;99929.59;;;25.41;51.61
55317;BME280;41178;48.956;8.130;2023-08-12T16:03:40;99925.41;;;24.78;52.00
55317;BME280;41178;48.956;8.130;2023-08-12T16:08:42;99912.13;;;25.81;50.94
55317;BME280;41178;48.956;8.130;2023-08-12T16:13:47;99915.75;;;25.66;50.25
55317;BME280;41178;48.956;8.130;2023-08-12T16:18:49;99906.75;;;26.40;48.80
55317;BME280;41178;48.956;8.130;2023-08-12T16:23:51;99903.66;;;26.52;49.95
55317;BME280;41178;48.956;8.130;2023-08-12T16:28:52;99943.59;;;25.89;50.81
55317;BME280;41178;48.956;8.130;2023-08-12T16:33:54;99927.47;;;25.82;51.58
55317;BME280;41178;48.956;8.130;2023-08-12T16:38:56;99909.19;;;26.07;51.14
55317;BME280;41178;48.956;8.130;2023-08-12T16:43:57;99905.09;;;26.44;50.65
55317;BME280;41178;48.956;8.130;2023-08-12T16:48:59;99895.84;;;25.51;54.42
55317;BME280;41178;48.956;8.130;2023-08-12T16:54:01;99880.44;;;25.00;55.85
55317;BME280;41178;48.956;8.130;2023-08-12T16:59:03;99875.91;;;25.90;53.93
55317;BME280;41178;48.956;8.130;2023-08-12T17:04:05;99894.72;;;25.57;54.35
55317;BME280;41178;48.956;8.130;2023-08-12T17:09:13;99901.41;;;25.35;53.85
55317;BME280;41178;48.956;8.130;2023-08-12T17:14:17;99925.13;;;24.69;54.97
55317;BME280;41178;48.956;8.130;2023-08-12T17:19:19;99918.22;;;25.73;53.50
55317;BME280;41178;48.956;8.130;2023-08-12T17:24:21;99909.38;;;25.87;52.95
55317;BME280;41178;48.956;8.130;2023-08-12T17:29:22;99908.25;;;25.38;54.21
55317;BME280;41178;48.956;8.130;2023-08-12T17:34:24;99911.53;;;25.35;54.63
55317;BME280;41178;48.956;8.130;2023-08-12T17:39:26;99894.09;;;25.70;53.65
55317;BME280;41178;48.956;8.130;2023-08-12T17:44:28;99897.09;;;25.69;53.63
55317;BME280;41178;48.956;8.130;2023-08-12T17:49:30;99914.63;;;25.07;54.76
55317;BME280;41178;48.956;8.130;2023-08-12T17:54:32;99944.81;;;24.30;55.70
55317;BME280;41178;48.956;8.130;2023-08-12T17:59:34;99888.91;;;26.08;52.77
55317;BME280;41178;48.956;8.130;2023-08-12T18:04:36;99917.41;;;25.73;53.12
55317;BME280;41178;48.956;8.130;2023-08-12T18:09:37;99914.25;;;26.58;51.49
55317;BME280;41178;48.956;8.130;2023-08-12T18:14:39;99938.47;;;24.91;55.10
55317;BME280;41178;48.956;8.130;2023-08-12T18:19:41;99891.06;;;26.75;51.23
55317;BME280;41178;48.956;8.130;2023-08-12T18:24:43;99895.09;;;27.07;50.35
55317;BME280;41178;48.956;8.130;2023-08-12T18:29:44;99912.19;;;27.28;50.18
55317;BME280;41178;48.956;8.130;2023-08-12T18:34:46;99941.78;;;26.48;51.37
55317;BME280;41178;48.956;8.130;2023-08-12T18:39:48;99939.66;;;26.06;52.45
55317;BME280;41178;48.956;8.130;2023-08-12T18:44:49;99977.94;;;25.71;52.42
55317;BME280;41178;48.956;8.130;2023-08-12T18:49:51;99952.63;;;25.95;51.92
55317;BME280;41178;48.956;8.130;2023-08-12T18:54:53;99963.34;;;25.10;53.58
55317;BME280;41178;48.956;8.130;2023-08-12T18:59:55;99968.28;;;25.03;53.94
55317;BME280;41178;48.956;8.130;2023-08-12T19:04:57;99951.31;;;25.06;53.78
55317;BME280;41178;48.956;8.130;2023-08-12T19:09:58;99972.44;;;24.54;54.95
55317;BME280;41178;48.956;8.130;2023-08-12T19:15:00;99969.97;;;24.43;55.14
55317;BME280;41178;48.956;8.130;2023-08-12T19:20:02;99980.34;;;24.25;55.71
55317;BME280;41178;48.956;8.130;2023-08-12T19:25:05;99973.28;;;24.40;55.95
55317;BME280;41178;48.956;8.130;2023-08-12T19:30:07;99982.28;;;24.50;55.71
55317;BME280;41178;48.956;8.130;2023-08-12T19:35:09;99972.69;;;24.43;56.49
55317;BME280;41178;48.956;8.130;2023-08-12T19:40:12;99995.09;;;23.45;58.25
55317;BME280;41178;48.956;8.130;2023-08-12T19:45:14;100004.34;;;22.59;58.76
55317;BME280;41178;48.956;8.130;2023-08-12T19:50:16;99972.75;;;23.54;57.17
55317;BME280;41178;48.956;8.130;2023-08-12T19:55:18;99988.66;;;23.14;57.44
55317;BME280;41178;48.956;8.130;2023-08-12T20:00:20;99961.34;;;23.67;56.40
55317;BME280;41178;48.956;8.130;2023-08-12T20:05:22;100009.47;;;22.50;57.69
55317;BME280;41178;48.956;8.130;2023-08-12T20:10:24;99994.47;;;23.23;57.00
55317;BME280;41178;48.956;8.130;2023-08-12T20:15:26;100012.44;;;22.81;57.20
55317;BME280;41178;48.956;8.130;2023-08-12T20:20:28;100001.47;;;23.14;56.61
55317;BME280;41178;48.956;8.130;2023-08-12T20:25:30;99998.03;;;24.02;54.34
55317;BME280;41178;48.956;8.130;2023-08-12T20:30:32;100012.50;;;23.82;54.46
55317;BME280;41178;48.956;8.130;2023-08-12T20:35:35;100011.72;;;24.02;54.18
55317;BME280;41178;48.956;8.130;2023-08-12T20:40:37;100016.75;;;24.41;53.42
55317;BME280;41178;48.956;8.130;2023-08-12T20:45:38;100010.16;;;24.37;53.08
55317;BME280;41178;48.956;8.130;2023-08-12T20:50:40;100014.81;;;24.36;52.83
55317;BME280;41178;48.956;8.130;2023-08-12T20:55:42;100017.03;;;24.81;52.44
55317;BME280;41178;48.956;8.130;2023-08-12T21:00:44;99996.66;;;25.43;51.02
55317;BME280;41178;48.956;8.130;2023-08-12T21:05:49;100011.28;;;24.98;51.83
55317;BME280;41178;48.956;8.130;2023-08-12T21:10:54;100028.25;;;24.89;52.12
55317;BME280;41178;48.956;8.130;2023-08-12T21:15:56;100010.44;;;24.56;52.95
55317;BME280;41178;48.956;8.130;2023-08-12T21:20:57;100050.16;;;23.75;53.60
55317;BME280;41178;48.956;8.130;2023-08-12T21:25:59;100020.84;;;24.54;53.00
55317;BME280;41178;48.956;8.130;2023-08-12T21:31:01;100035.81;;;24.15;53.41
55317;BME280;41178;48.956;8.130;2023-08-12T21:36:03;100052.69;;;23.97;53.79
55317;BME280;41178;48.956;8.130;2023-08-12T21:41:04;100036.75;;;24.78;52.50
55317;BME280;41178;48.956;8.130;2023-08-12T21:46:06;100052.34;;;24.98;51.56
55317;BME280;41178;48.956;8.130;2023-08-12T21:51:08;100030.69;;;25.37;51.17
55317;BME280;41178;48.956;8.130;2023-08-12T21:56:10;100055.84;;;24.31;52.78
55317;BME280;41178;48.956;8.130;2023-08-12T22:01:12;100033.19;;;24.98;51.88
55317;BME280;41178;48.956;8.130;2023-08-12T22:06:14;100021.06;;;25.40;51.32
55317;BME280;41178;48.956;8.130;2023-08-12T22:11:16;100040.78;;;25.37;51.28
55317;BME280;41178;48.956;8.130;2023-08-12T22:16:17;100045.75;;;24.73;51.98
55317;BME280;41178;48.956;8.130;2023-08-12T22:21:20;100035.63;;;24.63;52.28
55317;BME280;41178;48.956;8.130;2023-08-12T22:26:22;100024.09;;;24.35;52.73
55317;BME280;41178;48.956;8.130;2023-08-12T22:31:24;100012.09;;;24.57;52.34
55317;BME280;41178;48.956;8.130;2023-08-12T22:36:25;100020.31;;;24.47;53.08
55317;BME280;41178;48.956;8.130;2023-08-12T22:41:27;100016.06;;;23.88;54.21
55317;BME280;41178;48.956;8.130;2023-08-12T22:46:29;100012.00;;;23.37;55.52
55317;BME280;41178;48.956;8.130;2023-08-12T22:51:31;100009.59;;;23.56;54.83
55317;BME280;41178;48.956;8.130;2023-08-12T22:56:32;99981.19;;;24.57;52.80
55317;BME280;41178;48.956;8.130;2023-08-12T23:01:39;99995.44;;;24.79;51.88
55317;BME280;41178;48.956;8.130;2023-08-12T23:06:40;100019.66;;;24.14;52.91
55317;BME280;41178;48.956;8.130;2023-08-12T23:11:42;99999.50;;;24.35;53.46
55317;BME280;41178;48.956;8.130;2023-08-12T23:16:44;99977.31;;;25.09;51.75
55317;BME280;41178;48.956;8.130;2023-08-12T23:21:46;99980.34;;;24.97;51.32
55317;BME280;41178;48.956;8.130;2023-08-12T23:26:47;99994.41;;;22.80;56.24
55317;BME280;41178;48.956;8.130;2023-08-12T23:31:49;99976.84;;;23.56;54.36
55317;BME280;41178;48.956;8.130;2023-08-12T23:36:51;99984.72;;;23.48;54.68
55317;BME280;41178;48.956;8.130;2023-08-12T23:41:52;99992.47;;;23.13;56.14
55317;BME280;41178;48.956;8.130;2023-08-12T23:46:54;99975.00;;;23.14;56.10
55317;BME280;41178;48.956;8.130;2023-08-12T23:51:56;99999.66;;;23.30;55.06
55317;BME280;41178;48.956;8.130;2023-08-12T23:56:59;99986.84;;;24.09;54.22
